Etusivu
METAR-TAF:

METAR-TAF

Lentoasemat :

Whiting_Field_Naval_Air_Station_South_Airport

Milton, Florida, Yhdysvallat

Leveyspiiri: 30-41-50N, Pituuspiiri: 087-01-12W, korkeus merenpinnasta: 54 m

Tämänhetkinen sää

Tämä raportti tehtiin 27 minuuttia sitten, kello 15.04 UTC
Tuuli 6 kn etelästä
Lämpötila 19°C
Kosteus 100%
Ilmanpaine 1021 hPa
Näkyvyys: 6.4 km
Pilvistä 200 ft:n korkeudessa
utua

METAR: KNDZ 261504Z 17006KT 4SM BR OVC002 19/19 A3014 RMK T01940189

Aika: 09:31 (15:31 UTC)


TAF: puuttuu

Säähavainnot ja -ennusteet yli 4000 lentoasemalta (METAR- ja TAF-raportit).

Käytössä olevat sääasemat on merkitty karttaan keltaisilla ja punaisilla pisteillä.

Aseta hiiri pisteen päälle nähdäksesi sääaseman nimen.

Klikkaa sitten nähdäksesi säähavainnot ja -ennusteet.

Kartan vaihtaminen: klikkaa mustalla rastilla varustettuja vihreitä pisteitä, niin voit zoomata sisään; viivalla varustettua vihreää pistettä, niin voit zoomata ulos tai vihreitä nuolia, niin pääset viereisille kartoille.


METAR-TAF: